Etusivu
METAR-TAF:

METAR-TAF

Lentoasemat :

Hobbs, New Mexico, Yhdysvallat

Leveyspiiri: 32-41N, Pituuspiiri: 103-13W, korkeus merenpinnasta: 1115 m

Tämänhetkinen sää

Tämä raportti tehtiin 15 minuuttia sitten, kello 03.15 UTC
Tuuli 5 kn idästä/kaakosta
Lämpötila 2°C
Kosteus 64%
Ilmanpaine 1025 hPa
Näkyvyys: 16.1 km
selkeää

METAR: KHOB 210315Z AUTO 11005KT 10SM CLR 02/M04 A3028 RMK AO2

Aika: 20:30 (03:30 UTC)

Sääennuste

Tämä raportti tehtiin 3 tuntia ja 49 minuuttia sitten, kello 23.41 UTC
Ennuste voimassa 21. päivästä klo 00 UTC - 21. päivään klo 24 UTC
Tuuli 8 kn kaakosta
Näkyvyys: 10 km
Muutamia pilviä 25000 ft:n korkeudessa
From 21. päivästä klo 1300 UTC
Tuuli 6 kn etelästä/kaakosta
Näkyvyys: 10 km
Hajonneita pilviä 2000 ft:n korkeudessa

TAF: KHOB 202341Z 2100/2124 13008KT P6SM FEW250 FM211300 15006KT P6SM BKN020

Säähavainnot ja -ennusteet yli 4000 lentoasemalta (METAR- ja TAF-raportit).

Käytössä olevat sääasemat on merkitty karttaan keltaisilla ja punaisilla pisteillä.

Aseta hiiri pisteen päälle nähdäksesi sääaseman nimen.

Klikkaa sitten nähdäksesi säähavainnot ja -ennusteet.

Kartan vaihtaminen: klikkaa mustalla rastilla varustettuja vihreitä pisteitä, niin voit zoomata sisään; viivalla varustettua vihreää pistettä, niin voit zoomata ulos tai vihreitä nuolia, niin pääset viereisille kartoille.


METAR-TAF: